createdAt,value
2022-10-31T00:04:59.500Z,28.70
2022-10-31T00:12:01.060Z,28.70
2022-10-31T00:19:03.942Z,30.88
2022-10-31T00:26:06.188Z,26.63
2022-10-31T00:33:07.759Z,23.98
2022-10-31T00:40:10.097Z,26.95
2022-10-31T00:47:11.652Z,25.80
2022-10-31T00:54:13.609Z,25.15
2022-10-31T01:01:15.304Z,27.75
2022-10-31T01:08:17.018Z,29.33
2022-10-31T01:15:21.235Z,27.35
2022-10-31T01:22:22.812Z,25.95
2022-10-31T01:29:25.761Z,23.05
2022-10-31T01:36:31.837Z,27.00
2022-10-31T01:44:02.193Z,27.65
2022-10-31T01:58:13.006Z,22.70
2022-10-31T02:05:17.391Z,26.38
2022-10-31T02:12:18.978Z,25.27
2022-10-31T02:19:50.878Z,25.23
2022-10-31T02:26:54.077Z,23.15
2022-10-31T02:33:59.010Z,23.13
2022-10-31T02:41:20.818Z,22.00
2022-10-31T02:48:29.939Z,20.75
2022-10-31T02:55:31.396Z,24.25
2022-10-31T03:02:40.936Z,23.45
2022-10-31T03:09:56.367Z,22.45
2022-10-31T03:16:58.014Z,21.35
2022-10-31T03:23:59.699Z,28.73
2022-10-31T03:31:03.503Z,23.77
2022-10-31T03:38:08.269Z,20.88
2022-10-31T03:45:12.271Z,24.75
2022-10-31T03:52:33.286Z,19.73
2022-10-31T03:59:44.177Z,16.30
2022-10-31T04:06:45.950Z,19.40
2022-10-31T04:13:47.526Z,21.48
2022-10-31T04:21:06.405Z,16.27
2022-10-31T04:28:08.020Z,19.42
2022-10-31T04:35:09.796Z,17.92
2022-10-31T04:42:12.485Z,20.40
2022-10-31T04:49:14.452Z,16.75
2022-10-31T04:56:16.276Z,20.33
2022-10-31T05:03:21.499Z,18.30
2022-10-31T05:10:24.693Z,20.25
2022-10-31T05:17:27.090Z,18.88
2022-10-31T05:24:51.871Z,20.75
2022-10-31T05:31:53.888Z,21.40
2022-10-31T05:39:15.469Z,20.50
2022-10-31T05:46:21.225Z,22.23
2022-10-31T05:53:48.803Z,27.85
2022-10-31T06:00:51.648Z,26.80
2022-10-31T06:07:53.871Z,28.95
2022-10-31T06:14:55.524Z,24.42
2022-10-31T06:21:57.262Z,23.58
2022-10-31T06:29:03.023Z,19.65
2022-10-31T06:43:32.535Z,21.55
2022-10-31T06:51:06.516Z,22.30
2022-10-31T06:58:10.240Z,22.90
2022-10-31T07:05:14.151Z,27.98
2022-10-31T07:12:16.670Z,25.88
2022-10-31T07:19:26.635Z,24.20
2022-10-31T07:26:29.297Z,22.92
2022-10-31T07:33:31.093Z,23.17
2022-10-31T07:47:54.630Z,20.73
2022-10-31T07:55:16.491Z,22.90
2022-10-31T08:02:23.129Z,21.08
2022-10-31T08:09:56.775Z,23.65
2022-10-31T08:17:02.005Z,25.30
2022-10-31T08:24:12.484Z,23.25
2022-10-31T08:31:15.825Z,22.88
2022-10-31T08:38:37.692Z,25.80
2022-10-31T08:45:40.480Z,22.90
2022-10-31T08:53:04.062Z,24.50
2022-10-31T09:00:08.578Z,23.92
2022-10-31T09:07:27.573Z,20.02
2022-10-31T09:14:29.698Z,22.23
2022-10-31T09:21:57.925Z,21.67
2022-10-31T09:28:59.493Z,20.73
2022-10-31T09:36:01.178Z,22.85
2022-10-31T09:43:21.485Z,27.92
2022-10-31T09:50:27.113Z,24.85
2022-10-31T09:57:31.008Z,25.13
2022-10-31T10:04:41.592Z,24.95
2022-10-31T10:12:10.689Z,28.95
2022-10-31T10:19:50.607Z,30.92
2022-10-31T10:34:12.787Z,29.63
2022-10-31T10:41:17.541Z,32.72
2022-10-31T10:48:34.104Z,31.90
2022-10-31T10:55:46.417Z,28.27
2022-10-31T11:02:49.201Z,30.65
2022-10-31T11:09:51.138Z,28.30
2022-10-31T11:17:08.423Z,28.48
2022-10-31T11:24:10.294Z,25.63
2022-10-31T11:31:14.164Z,24.98
2022-10-31T11:38:20.402Z,30.30
2022-10-31T11:45:24.881Z,29.58
2022-10-31T11:52:27.977Z,30.17
2022-10-31T11:59:31.212Z,34.05
2022-10-31T12:06:37.615Z,25.38
2022-10-31T12:13:52.641Z,29.60
2022-10-31T12:21:26.541Z,34.92
2022-10-31T12:28:54.110Z,33.47
2022-10-31T12:36:15.424Z,34.60
2022-10-31T12:43:27.944Z,35.90
2022-10-31T12:51:07.034Z,31.77
2022-10-31T12:58:11.939Z,28.93
2022-10-31T13:05:34.218Z,27.40
2022-10-31T13:12:37.486Z,28.42
2022-10-31T13:19:41.492Z,27.42
2022-10-31T13:26:51.269Z,30.30
2022-10-31T13:33:55.580Z,29.63
2022-10-31T13:41:01.309Z,27.33
2022-10-31T13:48:33.800Z,24.48
2022-10-31T13:55:39.902Z,30.95
2022-10-31T14:02:46.588Z,29.95
2022-10-31T14:09:56.664Z,26.38
2022-10-31T14:16:58.309Z,34.85
2022-10-31T14:23:59.895Z,28.38
2022-10-31T14:31:01.511Z,38.20
2022-10-31T14:38:15.544Z,34.53
2022-10-31T14:45:41.164Z,36.22
2022-10-31T14:52:44.003Z,46.97
2022-10-31T14:59:49.877Z,27.58
2022-10-31T15:07:03.905Z,35.83
2022-10-31T15:14:22.005Z,32.75
2022-10-31T15:21:24.455Z,30.27
2022-10-31T15:28:26.390Z,34.15
2022-10-31T15:35:29.537Z,30.95
2022-10-31T15:42:36.807Z,36.80
2022-10-31T15:49:42.484Z,38.38
2022-10-31T15:56:44.117Z,33.08
2022-10-31T16:03:45.662Z,38.47
2022-10-31T16:10:47.216Z,39.20
2022-10-31T16:17:50.160Z,37.45
2022-10-31T16:24:55.470Z,38.05
2022-10-31T16:31:57.058Z,38.42
2022-10-31T16:38:59.087Z,37.35
2022-10-31T16:46:00.665Z,40.35
2022-10-31T16:53:17.692Z,39.35
2022-10-31T17:00:23.642Z,44.85
2022-10-31T17:07:25.213Z,44.90
2022-10-31T17:14:26.835Z,55.38
2022-10-31T17:21:28.780Z,40.60
2022-10-31T17:28:30.326Z,49.35
2022-10-31T17:35:31.921Z,47.45
2022-10-31T17:42:33.540Z,46.35
2022-10-31T17:49:35.100Z,44.60
2022-10-31T17:56:36.667Z,43.88
2022-10-31T18:03:38.516Z,43.40
2022-10-31T18:10:40.072Z,46.42
2022-10-31T18:17:42.359Z,40.00
2022-10-31T18:24:44.086Z,39.85
2022-10-31T18:31:48.420Z,36.97
2022-10-31T18:38:50.054Z,35.85
2022-10-31T18:45:56.705Z,40.40
2022-10-31T18:52:59.754Z,41.13
2022-10-31T19:00:01.604Z,36.97
2022-10-31T19:07:03.199Z,37.15
2022-10-31T19:14:05.539Z,38.88
2022-10-31T19:21:08.141Z,38.22
2022-10-31T19:28:09.755Z,39.85
2022-10-31T19:35:11.522Z,38.53
2022-10-31T19:42:13.201Z,40.90
2022-10-31T19:49:14.773Z,42.83
2022-10-31T19:56:17.740Z,41.45
2022-10-31T20:03:21.620Z,43.70
2022-10-31T20:10:25.142Z,42.35
2022-10-31T20:17:26.776Z,41.08
2022-10-31T20:24:31.814Z,38.72
2022-10-31T20:31:35.836Z,38.55
2022-10-31T20:38:38.974Z,34.35
2022-10-31T20:45:40.535Z,33.13
2022-10-31T20:52:42.092Z,28.00
2022-10-31T20:59:43.637Z,32.92
2022-10-31T21:06:49.233Z,29.45
2022-10-31T21:13:51.288Z,29.48
2022-10-31T21:20:52.870Z,28.63
2022-10-31T21:27:54.418Z,33.58
2022-10-31T21:34:55.996Z,30.45
2022-10-31T21:41:57.545Z,29.95
2022-10-31T21:48:59.198Z,32.70
2022-10-31T21:56:04.215Z,31.75
2022-10-31T22:03:05.791Z,37.60
2022-10-31T22:10:07.746Z,30.75
2022-10-31T22:17:09.470Z,34.38
2022-10-31T22:24:11.166Z,32.38
2022-10-31T22:31:13.842Z,36.38
2022-10-31T22:38:15.433Z,40.92
2022-10-31T22:45:17.154Z,33.67
2022-10-31T22:52:18.751Z,37.10
2022-10-31T22:59:20.607Z,37.60
2022-10-31T23:06:24.385Z,38.22
2022-10-31T23:13:44.506Z,43.53
2022-10-31T23:20:53.566Z,38.72
2022-10-31T23:27:55.125Z,38.80
2022-10-31T23:34:58.302Z,40.78
2022-10-31T23:41:59.970Z,40.03
2022-10-31T23:49:01.577Z,41.40
2022-10-31T23:56:03.202Z,39.55
